sensor_id;sensor_type;location;lat;lon;timestamp;temperature;humidity
12700;DHT22;6414;49.570;6.060;2024-01-30T00:19:48;5.00;99.90
12700;DHT22;6414;49.570;6.060;2024-01-30T00:22:33;4.90;99.90
12700;DHT22;6414;49.570;6.060;2024-01-30T00:25:19;4.90;99.90
12700;DHT22;6414;49.570;6.060;2024-01-30T00:28:05;4.90;99.90
12700;DHT22;6414;49.570;6.060;2024-01-30T00:34:35;4.90;99.90
12700;DHT22;6414;49.570;6.060;2024-01-30T00:37:26;4.80;99.90
12700;DHT22;6414;49.570;6.060;2024-01-30T00:42:54;4.50;99.90
12700;DHT22;6414;49.570;6.060;2024-01-30T00:45:40;4.40;99.90
12700;DHT22;6414;49.570;6.060;2024-01-30T00:48:26;4.50;99.90
12700;DHT22;6414;49.570;6.060;2024-01-30T00:51:12;4.60;99.90
12700;DHT22;6414;49.570;6.060;2024-01-30T00:53:58;4.70;99.90
12700;DHT22;6414;49.570;6.060;2024-01-30T00:56:44;4.80;99.90
12700;DHT22;6414;49.570;6.060;2024-01-30T00:59:29;4.80;99.90
12700;DHT22;6414;49.570;6.060;2024-01-30T01:08:30;4.50;99.90
12700;DHT22;6414;49.570;6.060;2024-01-30T01:11:16;4.50;99.90
12700;DHT22;6414;49.570;6.060;2024-01-30T01:14:03;4.60;99.90
12700;DHT22;6414;49.570;6.060;2024-01-30T01:16:49;4.70;99.90
12700;DHT22;6414;49.570;6.060;2024-01-30T01:19:35;4.70;99.90
12700;DHT22;6414;49.570;6.060;2024-01-30T01:22:21;4.80;99.90
12700;DHT22;6414;49.570;6.060;2024-01-30T01:25:08;4.80;99.90
12700;DHT22;6414;49.570;6.060;2024-01-30T01:31:27;4.80;99.90
12700;DHT22;6414;49.570;6.060;2024-01-30T01:34:13;4.80;99.90
12700;DHT22;6414;49.570;6.060;2024-01-30T01:36:59;4.80;99.90
12700;DHT22;6414;49.570;6.060;2024-01-30T01:39:45;4.70;99.90
12700;DHT22;6414;49.570;6.060;2024-01-30T01:42:31;4.70;99.90
12700;DHT22;6414;49.570;6.060;2024-01-30T01:45:17;4.80;99.90
12700;DHT22;6414;49.570;6.060;2024-01-30T01:48:03;4.70;99.90
12700;DHT22;6414;49.570;6.060;2024-01-30T01:50:49;4.80;99.90
12700;DHT22;6414;49.570;6.060;2024-01-30T01:53:35;4.80;99.90
12700;DHT22;6414;49.570;6.060;2024-01-30T01:56:22;4.80;99.90
12700;DHT22;6414;49.570;6.060;2024-01-30T01:59:07;4.80;99.90
12700;DHT22;6414;49.570;6.060;2024-01-30T02:01:55;4.60;99.90
12700;DHT22;6414;49.570;6.060;2024-01-30T02:04:41;4.60;99.90
12700;DHT22;6414;49.570;6.060;2024-01-30T02:07:27;4.50;99.90
12700;DHT22;6414;49.570;6.060;2024-01-30T02:10:13;4.50;99.90
12700;DHT22;6414;49.570;6.060;2024-01-30T02:12:59;4.40;99.90
12700;DHT22;6414;49.570;6.060;2024-01-30T02:15:48;4.40;99.90
12700;DHT22;6414;49.570;6.060;2024-01-30T02:18:31;4.30;99.90
12700;DHT22;6414;49.570;6.060;2024-01-30T02:21:17;4.10;99.90
12700;DHT22;6414;49.570;6.060;2024-01-30T02:24:03;3.90;99.90
12700;DHT22;6414;49.570;6.060;2024-01-30T02:26:48;3.90;99.90
12700;DHT22;6414;49.570;6.060;2024-01-30T02:29:34;4.00;99.90
12700;DHT22;6414;49.570;6.060;2024-01-30T02:32:20;3.80;99.90
12700;DHT22;6414;49.570;6.060;2024-01-30T02:35:06;3.80;99.90
12700;DHT22;6414;49.570;6.060;2024-01-30T02:37:52;3.90;99.90
12700;DHT22;6414;49.570;6.060;2024-01-30T02:40:38;4.10;99.90
12700;DHT22;6414;49.570;6.060;2024-01-30T02:43:24;4.30;99.90
12700;DHT22;6414;49.570;6.060;2024-01-30T02:46:10;4.40;99.90
12700;DHT22;6414;49.570;6.060;2024-01-30T02:48:56;4.40;99.90
12700;DHT22;6414;49.570;6.060;2024-01-30T02:51:43;4.40;99.90
12700;DHT22;6414;49.570;6.060;2024-01-30T02:54:30;4.40;99.90
12700;DHT22;6414;49.570;6.060;2024-01-30T02:57:16;4.40;99.90
12700;DHT22;6414;49.570;6.060;2024-01-30T03:00:02;4.30;99.90
12700;DHT22;6414;49.570;6.060;2024-01-30T03:02:48;4.40;99.90
12700;DHT22;6414;49.570;6.060;2024-01-30T03:05:34;4.40;99.90
12700;DHT22;6414;49.570;6.060;2024-01-30T03:08:20;4.40;99.90
12700;DHT22;6414;49.570;6.060;2024-01-30T03:11:06;4.40;99.90
12700;DHT22;6414;49.570;6.060;2024-01-30T03:13:52;4.40;99.90
12700;DHT22;6414;49.570;6.060;2024-01-30T03:16:38;4.30;99.90
12700;DHT22;6414;49.570;6.060;2024-01-30T03:19:25;4.40;99.90
12700;DHT22;6414;49.570;6.060;2024-01-30T03:22:11;4.40;99.90
12700;DHT22;6414;49.570;6.060;2024-01-30T03:24:57;4.30;99.90
12700;DHT22;6414;49.570;6.060;2024-01-30T03:27:43;4.20;99.90
12700;DHT22;6414;49.570;6.060;2024-01-30T03:30:29;4.20;99.90
12700;DHT22;6414;49.570;6.060;2024-01-30T03:33:15;4.30;99.90
12700;DHT22;6414;49.570;6.060;2024-01-30T03:36:04;4.20;99.90
12700;DHT22;6414;49.570;6.060;2024-01-30T03:38:49;4.20;99.90
12700;DHT22;6414;49.570;6.060;2024-01-30T03:41:36;4.20;99.90
12700;DHT22;6414;49.570;6.060;2024-01-30T03:44:21;4.20;99.90
12700;DHT22;6414;49.570;6.060;2024-01-30T03:47:08;4.10;99.90
12700;DHT22;6414;49.570;6.060;2024-01-30T03:49:54;4.10;99.90
12700;DHT22;6414;49.570;6.060;2024-01-30T03:52:40;4.00;99.90
12700;DHT22;6414;49.570;6.060;2024-01-30T03:55:27;4.00;99.90
12700;DHT22;6414;49.570;6.060;2024-01-30T03:58:13;4.00;99.90
12700;DHT22;6414;49.570;6.060;2024-01-30T04:00:58;3.90;99.90
12700;DHT22;6414;49.570;6.060;2024-01-30T04:03:48;3.90;99.90
12700;DHT22;6414;49.570;6.060;2024-01-30T04:06:34;3.90;99.90
12700;DHT22;6414;49.570;6.060;2024-01-30T04:09:20;4.00;99.90
12700;DHT22;6414;49.570;6.060;2024-01-30T04:12:05;3.90;99.90
12700;DHT22;6414;49.570;6.060;2024-01-30T04:14:51;3.90;99.90
12700;DHT22;6414;49.570;6.060;2024-01-30T04:17:37;4.00;99.90
12700;DHT22;6414;49.570;6.060;2024-01-30T04:20:23;3.90;99.90
12700;DHT22;6414;49.570;6.060;2024-01-30T04:23:09;3.80;99.90
12700;DHT22;6414;49.570;6.060;2024-01-30T04:25:56;3.80;99.90
12700;DHT22;6414;49.570;6.060;2024-01-30T04:28:43;3.80;99.90
12700;DHT22;6414;49.570;6.060;2024-01-30T04:31:28;3.80;99.90
12700;DHT22;6414;49.570;6.060;2024-01-30T04:34:14;3.70;99.90
12700;DHT22;6414;49.570;6.060;2024-01-30T04:37:00;3.80;99.90
12700;DHT22;6414;49.570;6.060;2024-01-30T04:39:46;3.80;99.90
12700;DHT22;6414;49.570;6.060;2024-01-30T04:42:32;3.90;99.90
12700;DHT22;6414;49.570;6.060;2024-01-30T04:45:18;3.90;99.90
12700;DHT22;6414;49.570;6.060;2024-01-30T04:48:03;3.80;99.90
12700;DHT22;6414;49.570;6.060;2024-01-30T04:50:50;3.70;99.90
12700;DHT22;6414;49.570;6.060;2024-01-30T04:53:36;3.70;99.90
12700;DHT22;6414;49.570;6.060;2024-01-30T04:56:22;3.80;99.90
12700;DHT22;6414;49.570;6.060;2024-01-30T04:59:08;3.90;99.90
12700;DHT22;6414;49.570;6.060;2024-01-30T05:01:54;3.90;99.90
12700;DHT22;6414;49.570;6.060;2024-01-30T05:04:40;3.90;99.90
12700;DHT22;6414;49.570;6.060;2024-01-30T05:07:26;3.90;99.90
12700;DHT22;6414;49.570;6.060;2024-01-30T05:10:12;3.80;99.90
12700;DHT22;6414;49.570;6.060;2024-01-30T05:12:59;3.80;99.90
12700;DHT22;6414;49.570;6.060;2024-01-30T05:15:45;3.80;99.90
12700;DHT22;6414;49.570;6.060;2024-01-30T05:18:31;3.80;99.90
12700;DHT22;6414;49.570;6.060;2024-01-30T05:21:17;3.90;99.90
12700;DHT22;6414;49.570;6.060;2024-01-30T05:24:03;3.90;99.90
12700;DHT22;6414;49.570;6.060;2024-01-30T05:26:50;3.90;99.90
12700;DHT22;6414;49.570;6.060;2024-01-30T05:29:36;3.90;99.90
12700;DHT22;6414;49.570;6.060;2024-01-30T05:32:23;4.00;99.90
12700;DHT22;6414;49.570;6.060;2024-01-30T05:35:09;4.00;99.90
12700;DHT22;6414;49.570;6.060;2024-01-30T05:37:54;4.00;99.90
12700;DHT22;6414;49.570;6.060;2024-01-30T05:40:41;4.00;99.90
12700;DHT22;6414;49.570;6.060;2024-01-30T05:43:26;4.00;99.90
12700;DHT22;6414;49.570;6.060;2024-01-30T05:46:12;3.90;99.90
12700;DHT22;6414;49.570;6.060;2024-01-30T05:48:58;4.00;99.90
12700;DHT22;6414;49.570;6.060;2024-01-30T05:51:44;4.00;99.90
12700;DHT22;6414;49.570;6.060;2024-01-30T05:54:30;4.00;99.90
12700;DHT22;6414;49.570;6.060;2024-01-30T05:57:17;4.00;99.90
12700;DHT22;6414;49.570;6.060;2024-01-30T06:00:03;4.00;99.90
12700;DHT22;6414;49.570;6.060;2024-01-30T06:02:49;4.00;99.90
12700;DHT22;6414;49.570;6.060;2024-01-30T06:05:34;4.00;99.90
12700;DHT22;6414;49.570;6.060;2024-01-30T06:08:21;4.00;99.90
12700;DHT22;6414;49.570;6.060;2024-01-30T06:11:09;4.10;99.90
12700;DHT22;6414;49.570;6.060;2024-01-30T06:13:53;4.10;99.90
12700;DHT22;6414;49.570;6.060;2024-01-30T06:16:39;4.00;99.90
12700;DHT22;6414;49.570;6.060;2024-01-30T06:19:25;4.00;99.90
12700;DHT22;6414;49.570;6.060;2024-01-30T06:22:12;3.80;99.90
12700;DHT22;6414;49.570;6.060;2024-01-30T06:24:58;3.80;99.90
12700;DHT22;6414;49.570;6.060;2024-01-30T06:27:44;3.80;99.90
12700;DHT22;6414;49.570;6.060;2024-01-30T06:30:30;3.80;99.90
12700;DHT22;6414;49.570;6.060;2024-01-30T06:33:16;3.80;99.90
12700;DHT22;6414;49.570;6.060;2024-01-30T06:36:03;3.80;99.90
12700;DHT22;6414;49.570;6.060;2024-01-30T06:38:49;3.80;99.90
12700;DHT22;6414;49.570;6.060;2024-01-30T06:41:35;3.90;99.90
12700;DHT22;6414;49.570;6.060;2024-01-30T06:44:21;3.90;99.90
12700;DHT22;6414;49.570;6.060;2024-01-30T06:47:11;3.90;99.90
12700;DHT22;6414;49.570;6.060;2024-01-30T06:49:58;4.00;99.90
12700;DHT22;6414;49.570;6.060;2024-01-30T06:52:43;4.00;99.90
12700;DHT22;6414;49.570;6.060;2024-01-30T06:55:29;4.10;99.90
12700;DHT22;6414;49.570;6.060;2024-01-30T06:58:15;4.10;99.90
12700;DHT22;6414;49.570;6.060;2024-01-30T07:01:02;4.10;99.90
12700;DHT22;6414;49.570;6.060;2024-01-30T07:03:48;4.10;99.90
12700;DHT22;6414;49.570;6.060;2024-01-30T07:06:34;4.20;99.90
12700;DHT22;6414;49.570;6.060;2024-01-30T07:09:20;4.10;99.90
12700;DHT22;6414;49.570;6.060;2024-01-30T07:12:06;4.10;99.90
12700;DHT22;6414;49.570;6.060;2024-01-30T07:14:52;4.10;99.90
12700;DHT22;6414;49.570;6.060;2024-01-30T07:17:38;4.00;99.90
12700;DHT22;6414;49.570;6.060;2024-01-30T07:20:24;4.00;99.90
12700;DHT22;6414;49.570;6.060;2024-01-30T07:23:10;3.90;99.90
12700;DHT22;6414;49.570;6.060;2024-01-30T07:25:56;3.90;99.90
12700;DHT22;6414;49.570;6.060;2024-01-30T07:28:42;3.90;99.90
12700;DHT22;6414;49.570;6.060;2024-01-30T07:31:28;3.90;99.90
12700;DHT22;6414;49.570;6.060;2024-01-30T07:34:14;4.00;99.90
12700;DHT22;6414;49.570;6.060;2024-01-30T07:37:00;4.10;99.90
12700;DHT22;6414;49.570;6.060;2024-01-30T07:39:47;4.20;99.90
12700;DHT22;6414;49.570;6.060;2024-01-30T07:42:33;4.30;99.90
12700;DHT22;6414;49.570;6.060;2024-01-30T07:45:19;4.30;99.90
12700;DHT22;6414;49.570;6.060;2024-01-30T07:48:08;4.40;99.90
12700;DHT22;6414;49.570;6.060;2024-01-30T07:50:54;4.40;99.90
12700;DHT22;6414;49.570;6.060;2024-01-30T07:53:40;4.40;99.90
12700;DHT22;6414;49.570;6.060;2024-01-30T07:56:26;4.50;99.90
12700;DHT22;6414;49.570;6.060;2024-01-30T07:59:13;4.50;99.90
12700;DHT22;6414;49.570;6.060;2024-01-30T08:01:59;4.70;99.90
12700;DHT22;6414;49.570;6.060;2024-01-30T08:04:45;4.70;99.90
12700;DHT22;6414;49.570;6.060;2024-01-30T08:07:31;4.70;99.90
12700;DHT22;6414;49.570;6.060;2024-01-30T08:10:17;4.80;99.90
12700;DHT22;6414;49.570;6.060;2024-01-30T08:13:06;4.80;99.90
12700;DHT22;6414;49.570;6.060;2024-01-30T08:15:52;5.00;99.90
12700;DHT22;6414;49.570;6.060;2024-01-30T08:18:38;5.00;99.90
12700;DHT22;6414;49.570;6.060;2024-01-30T08:21:24;5.00;99.90
12700;DHT22;6414;49.570;6.060;2024-01-30T08:24:09;5.00;99.90
12700;DHT22;6414;49.570;6.060;2024-01-30T08:26:55;5.00;99.90
12700;DHT22;6414;49.570;6.060;2024-01-30T08:29:41;5.00;99.90
12700;DHT22;6414;49.570;6.060;2024-01-30T08:32:27;5.00;99.90
12700;DHT22;6414;49.570;6.060;2024-01-30T08:35:13;5.00;99.90
12700;DHT22;6414;49.570;6.060;2024-01-30T08:37:59;5.00;99.90
12700;DHT22;6414;49.570;6.060;2024-01-30T08:40:45;4.90;99.90
12700;DHT22;6414;49.570;6.060;2024-01-30T08:43:31;4.90;99.90
12700;DHT22;6414;49.570;6.060;2024-01-30T08:46:18;4.90;99.90
12700;DHT22;6414;49.570;6.060;2024-01-30T08:49:03;5.00;99.90
12700;DHT22;6414;49.570;6.060;2024-01-30T08:51:52;5.00;99.90
12700;DHT22;6414;49.570;6.060;2024-01-30T08:54:38;5.00;99.90
12700;DHT22;6414;49.570;6.060;2024-01-30T08:57:24;4.90;99.90
12700;DHT22;6414;49.570;6.060;2024-01-30T09:00:10;4.90;99.90
12700;DHT22;6414;49.570;6.060;2024-01-30T09:02:56;4.90;99.90
12700;DHT22;6414;49.570;6.060;2024-01-30T09:05:43;5.00;99.90
12700;DHT22;6414;49.570;6.060;2024-01-30T09:08:29;5.00;99.90
12700;DHT22;6414;49.570;6.060;2024-01-30T09:11:15;5.10;99.90
12700;DHT22;6414;49.570;6.060;2024-01-30T09:14:01;5.20;99.90
12700;DHT22;6414;49.570;6.060;2024-01-30T09:16:47;5.20;99.90
12700;DHT22;6414;49.570;6.060;2024-01-30T09:19:34;5.20;99.90
12700;DHT22;6414;49.570;6.060;2024-01-30T09:22:20;5.20;99.90
12700;DHT22;6414;49.570;6.060;2024-01-30T09:25:06;5.30;99.90
12700;DHT22;6414;49.570;6.060;2024-01-30T09:27:52;5.30;99.90
12700;DHT22;6414;49.570;6.060;2024-01-30T09:30:38;5.40;99.90
12700;DHT22;6414;49.570;6.060;2024-01-30T09:33:24;5.50;99.90
12700;DHT22;6414;49.570;6.060;2024-01-30T09:36:10;5.60;99.90
12700;DHT22;6414;49.570;6.060;2024-01-30T09:38:56;5.70;99.90
12700;DHT22;6414;49.570;6.060;2024-01-30T09:41:49;5.90;99.90
12700;DHT22;6414;49.570;6.060;2024-01-30T09:44:35;6.00;99.90
12700;DHT22;6414;49.570;6.060;2024-01-30T09:47:21;6.10;99.90
12700;DHT22;6414;49.570;6.060;2024-01-30T09:50:07;6.20;99.90
12700;DHT22;6414;49.570;6.060;2024-01-30T09:52:53;6.20;99.90
12700;DHT22;6414;49.570;6.060;2024-01-30T09:55:39;6.20;99.90
12700;DHT22;6414;49.570;6.060;2024-01-30T09:58:25;6.20;99.90
12700;DHT22;6414;49.570;6.060;2024-01-30T10:01:11;6.30;99.90
12700;DHT22;6414;49.570;6.060;2024-01-30T10:03:57;6.30;99.90
12700;DHT22;6414;49.570;6.060;2024-01-30T10:06:43;6.40;99.90
12700;DHT22;6414;49.570;6.060;2024-01-30T10:09:31;6.50;99.90
12700;DHT22;6414;49.570;6.060;2024-01-30T10:12:16;6.60;99.90
12700;DHT22;6414;49.570;6.060;2024-01-30T10:15:02;6.60;99.90
12700;DHT22;6414;49.570;6.060;2024-01-30T10:17:48;6.70;99.90
12700;DHT22;6414;49.570;6.060;2024-01-30T10:20:34;6.80;99.90
12700;DHT22;6414;49.570;6.060;2024-01-30T10:23:20;7.00;99.90
12700;DHT22;6414;49.570;6.060;2024-01-30T10:26:07;7.10;99.90
12700;DHT22;6414;49.570;6.060;2024-01-30T10:28:52;7.20;99.90
12700;DHT22;6414;49.570;6.060;2024-01-30T10:31:39;7.40;99.90
12700;DHT22;6414;49.570;6.060;2024-01-30T10:34:25;7.40;99.90
12700;DHT22;6414;49.570;6.060;2024-01-30T10:37:11;7.40;99.90
12700;DHT22;6414;49.570;6.060;2024-01-30T10:40:03;7.20;99.90
12700;DHT22;6414;49.570;6.060;2024-01-30T10:42:48;7.20;99.90
12700;DHT22;6414;49.570;6.060;2024-01-30T10:45:35;7.20;99.90
12700;DHT22;6414;49.570;6.060;2024-01-30T10:48:21;7.20;99.90
12700;DHT22;6414;49.570;6.060;2024-01-30T10:51:06;7.20;99.90
12700;DHT22;6414;49.570;6.060;2024-01-30T10:53:53;7.20;99.90
12700;DHT22;6414;49.570;6.060;2024-01-30T10:56:39;7.30;99.90
12700;DHT22;6414;49.570;6.060;2024-01-30T10:59:25;7.30;99.90
12700;DHT22;6414;49.570;6.060;2024-01-30T11:02:11;7.30;99.90
12700;DHT22;6414;49.570;6.060;2024-01-30T11:04:58;7.30;99.90
12700;DHT22;6414;49.570;6.060;2024-01-30T11:07:44;7.40;99.90
12700;DHT22;6414;49.570;6.060;2024-01-30T11:10:29;7.40;99.90
12700;DHT22;6414;49.570;6.060;2024-01-30T11:13:16;7.50;99.90
12700;DHT22;6414;49.570;6.060;2024-01-30T11:16:05;7.60;99.90
12700;DHT22;6414;49.570;6.060;2024-01-30T11:18:51;7.80;99.90
12700;DHT22;6414;49.570;6.060;2024-01-30T11:21:43;7.90;99.90
12700;DHT22;6414;49.570;6.060;2024-01-30T11:24:29;8.00;99.90
12700;DHT22;6414;49.570;6.060;2024-01-30T11:27:15;8.00;99.90
12700;DHT22;6414;49.570;6.060;2024-01-30T11:30:02;8.10;99.90
12700;DHT22;6414;49.570;6.060;2024-01-30T11:33:01;8.10;99.90
12700;DHT22;6414;49.570;6.060;2024-01-30T11:35:44;8.20;99.90
12700;DHT22;6414;49.570;6.060;2024-01-30T11:38:29;8.40;99.90
12700;DHT22;6414;49.570;6.060;2024-01-30T11:41:15;8.60;99.90
12700;DHT22;6414;49.570;6.060;2024-01-30T11:44:03;8.70;99.90
12700;DHT22;6414;49.570;6.060;2024-01-30T11:46:48;8.80;99.90
12700;DHT22;6414;49.570;6.060;2024-01-30T11:49:34;8.80;99.90
12700;DHT22;6414;49.570;6.060;2024-01-30T11:52:20;9.20;99.90
12700;DHT22;6414;49.570;6.060;2024-01-30T11:55:07;9.20;99.90
12700;DHT22;6414;49.570;6.060;2024-01-30T11:57:56;9.30;99.90
12700;DHT22;6414;49.570;6.060;2024-01-30T12:00:41;9.40;99.90
12700;DHT22;6414;49.570;6.060;2024-01-30T12:03:27;9.30;99.90
12700;DHT22;6414;49.570;6.060;2024-01-30T12:06:15;9.40;99.90
12700;DHT22;6414;49.570;6.060;2024-01-30T12:09:00;9.50;99.90
12700;DHT22;6414;49.570;6.060;2024-01-30T12:11:45;9.60;99.90
12700;DHT22;6414;49.570;6.060;2024-01-30T12:14:31;9.60;99.90
12700;DHT22;6414;49.570;6.060;2024-01-30T12:17:28;9.70;99.90
12700;DHT22;6414;49.570;6.060;2024-01-30T12:20:19;9.70;99.90
12700;DHT22;6414;49.570;6.060;2024-01-30T12:23:01;9.70;99.90
12700;DHT22;6414;49.570;6.060;2024-01-30T12:25:47;9.80;99.90
12700;DHT22;6414;49.570;6.060;2024-01-30T12:28:33;9.90;99.90
12700;DHT22;6414;49.570;6.060;2024-01-30T12:31:24;9.90;99.90
12700;DHT22;6414;49.570;6.060;2024-01-30T12:34:05;9.80;99.90
12700;DHT22;6414;49.570;6.060;2024-01-30T12:36:51;9.90;99.90
12700;DHT22;6414;49.570;6.060;2024-01-30T12:39:37;9.80;99.90
12700;DHT22;6414;49.570;6.060;2024-01-30T12:42:23;9.70;99.90
12700;DHT22;6414;49.570;6.060;2024-01-30T12:45:09;9.80;99.90
12700;DHT22;6414;49.570;6.060;2024-01-30T12:47:54;9.80;99.90
12700;DHT22;6414;49.570;6.060;2024-01-30T12:50:40;9.70;99.90
12700;DHT22;6414;49.570;6.060;2024-01-30T12:53:26;9.60;99.90
12700;DHT22;6414;49.570;6.060;2024-01-30T12:56:13;9.50;99.90
12700;DHT22;6414;49.570;6.060;2024-01-30T12:58:59;9.50;99.90
12700;DHT22;6414;49.570;6.060;2024-01-30T13:01:45;9.50;99.90
12700;DHT22;6414;49.570;6.060;2024-01-30T13:04:31;9.50;99.90
12700;DHT22;6414;49.570;6.060;2024-01-30T13:07:17;9.60;99.90
12700;DHT22;6414;49.570;6.060;2024-01-30T13:10:04;9.70;99.90
12700;DHT22;6414;49.570;6.060;2024-01-30T13:12:50;9.60;99.90
12700;DHT22;6414;49.570;6.060;2024-01-30T13:15:36;9.60;99.90
12700;DHT22;6414;49.570;6.060;2024-01-30T13:18:23;9.70;99.90
12700;DHT22;6414;49.570;6.060;2024-01-30T13:21:08;9.70;99.90
12700;DHT22;6414;49.570;6.060;2024-01-30T13:23:55;9.70;99.90
12700;DHT22;6414;49.570;6.060;2024-01-30T13:26:42;9.60;99.90
12700;DHT22;6414;49.570;6.060;2024-01-30T13:29:26;9.50;99.90
12700;DHT22;6414;49.570;6.060;2024-01-30T13:32:12;9.60;99.90
12700;DHT22;6414;49.570;6.060;2024-01-30T13:34:58;9.60;99.90
12700;DHT22;6414;49.570;6.060;2024-01-30T13:37:45;9.60;99.90
12700;DHT22;6414;49.570;6.060;2024-01-30T13:40:30;9.60;99.90
12700;DHT22;6414;49.570;6.060;2024-01-30T13:43:16;9.70;99.90
12700;DHT22;6414;49.570;6.060;2024-01-30T13:46:02;9.70;99.90
12700;DHT22;6414;49.570;6.060;2024-01-30T13:48:48;9.80;99.90
12700;DHT22;6414;49.570;6.060;2024-01-30T13:51:34;9.80;99.90
12700;DHT22;6414;49.570;6.060;2024-01-30T13:54:20;9.80;99.90
12700;DHT22;6414;49.570;6.060;2024-01-30T13:57:07;9.90;99.90
12700;DHT22;6414;49.570;6.060;2024-01-30T13:59:53;9.90;99.90
12700;DHT22;6414;49.570;6.060;2024-01-30T14:02:39;9.90;99.90
12700;DHT22;6414;49.570;6.060;2024-01-30T14:05:26;9.90;99.90
12700;DHT22;6414;49.570;6.060;2024-01-30T14:08:11;9.90;99.90
12700;DHT22;6414;49.570;6.060;2024-01-30T14:10:57;9.90;99.90
12700;DHT22;6414;49.570;6.060;2024-01-30T14:13:44;9.90;99.90
12700;DHT22;6414;49.570;6.060;2024-01-30T14:16:30;9.90;99.90
12700;DHT22;6414;49.570;6.060;2024-01-30T14:19:17;9.90;99.90
12700;DHT22;6414;49.570;6.060;2024-01-30T14:24:36;9.80;99.90
12700;DHT22;6414;49.570;6.060;2024-01-30T14:27:22;9.80;99.90
12700;DHT22;6414;49.570;6.060;2024-01-30T14:30:10;9.80;99.90
12700;DHT22;6414;49.570;6.060;2024-01-30T14:32:53;9.90;99.90
12700;DHT22;6414;49.570;6.060;2024-01-30T14:35:39;9.90;99.90
12700;DHT22;6414;49.570;6.060;2024-01-30T14:38:25;10.00;99.90
12700;DHT22;6414;49.570;6.060;2024-01-30T14:41:10;10.00;99.90
12700;DHT22;6414;49.570;6.060;2024-01-30T14:43:56;10.00;99.90
12700;DHT22;6414;49.570;6.060;2024-01-30T14:46:45;10.00;99.90
12700;DHT22;6414;49.570;6.060;2024-01-30T14:49:28;9.90;99.90
12700;DHT22;6414;49.570;6.060;2024-01-30T14:52:14;9.90;99.90
12700;DHT22;6414;49.570;6.060;2024-01-30T14:54:59;9.80;99.90
12700;DHT22;6414;49.570;6.060;2024-01-30T14:57:45;9.80;99.90
12700;DHT22;6414;49.570;6.060;2024-01-30T15:00:31;9.80;99.90
12700;DHT22;6414;49.570;6.060;2024-01-30T15:03:17;9.80;99.90
12700;DHT22;6414;49.570;6.060;2024-01-30T15:06:02;9.90;99.90
12700;DHT22;6414;49.570;6.060;2024-01-30T15:08:48;9.90;99.90
12700;DHT22;6414;49.570;6.060;2024-01-30T15:11:34;9.90;99.90
12700;DHT22;6414;49.570;6.060;2024-01-30T15:14:20;9.90;99.90
12700;DHT22;6414;49.570;6.060;2024-01-30T15:17:05;9.90;99.90
12700;DHT22;6414;49.570;6.060;2024-01-30T15:19:51;9.90;99.90
12700;DHT22;6414;49.570;6.060;2024-01-30T15:22:37;9.80;99.90
12700;DHT22;6414;49.570;6.060;2024-01-30T15:25:23;9.80;99.90
12700;DHT22;6414;49.570;6.060;2024-01-30T15:28:09;9.80;99.90
12700;DHT22;6414;49.570;6.060;2024-01-30T15:30:56;9.80;99.90
12700;DHT22;6414;49.570;6.060;2024-01-30T15:33:42;9.80;99.90
12700;DHT22;6414;49.570;6.060;2024-01-30T15:36:29;9.80;99.90
12700;DHT22;6414;49.570;6.060;2024-01-30T15:39:14;9.70;99.90
12700;DHT22;6414;49.570;6.060;2024-01-30T15:42:00;9.70;99.90
12700;DHT22;6414;49.570;6.060;2024-01-30T15:44:46;9.60;99.90
12700;DHT22;6414;49.570;6.060;2024-01-30T15:47:31;9.70;99.90
12700;DHT22;6414;49.570;6.060;2024-01-30T15:50:17;9.70;99.90
12700;DHT22;6414;49.570;6.060;2024-01-30T15:53:03;9.60;99.90
12700;DHT22;6414;49.570;6.060;2024-01-30T15:55:49;9.60;99.90
12700;DHT22;6414;49.570;6.060;2024-01-30T15:58:35;9.70;99.90
12700;DHT22;6414;49.570;6.060;2024-01-30T16:01:21;9.70;99.90
12700;DHT22;6414;49.570;6.060;2024-01-30T16:04:08;9.60;99.90
12700;DHT22;6414;49.570;6.060;2024-01-30T16:06:53;9.70;99.90
12700;DHT22;6414;49.570;6.060;2024-01-30T16:09:39;9.60;99.90
12700;DHT22;6414;49.570;6.060;2024-01-30T16:12:25;9.50;99.90
12700;DHT22;6414;49.570;6.060;2024-01-30T16:15:11;9.50;99.90
12700;DHT22;6414;49.570;6.060;2024-01-30T16:17:56;9.50;99.90
12700;DHT22;6414;49.570;6.060;2024-01-30T16:20:45;9.50;99.90
12700;DHT22;6414;49.570;6.060;2024-01-30T16:23:28;9.40;99.90
12700;DHT22;6414;49.570;6.060;2024-01-30T16:26:14;9.40;99.90
12700;DHT22;6414;49.570;6.060;2024-01-30T16:28:59;9.30;99.90
12700;DHT22;6414;49.570;6.060;2024-01-30T16:31:45;9.40;99.90
12700;DHT22;6414;49.570;6.060;2024-01-30T16:34:31;9.40;99.90
12700;DHT22;6414;49.570;6.060;2024-01-30T16:37:16;9.30;99.90
12700;DHT22;6414;49.570;6.060;2024-01-30T16:40:02;9.20;99.90
12700;DHT22;6414;49.570;6.060;2024-01-30T16:42:48;9.30;99.90
12700;DHT22;6414;49.570;6.060;2024-01-30T16:45:34;9.20;99.90
12700;DHT22;6414;49.570;6.060;2024-01-30T16:48:20;9.30;99.90
12700;DHT22;6414;49.570;6.060;2024-01-30T16:51:06;9.30;99.90
12700;DHT22;6414;49.570;6.060;2024-01-30T16:53:52;9.30;99.90
12700;DHT22;6414;49.570;6.060;2024-01-30T16:56:38;9.30;99.90
12700;DHT22;6414;49.570;6.060;2024-01-30T16:59:24;9.30;99.90
12700;DHT22;6414;49.570;6.060;2024-01-30T17:02:10;9.30;99.90
12700;DHT22;6414;49.570;6.060;2024-01-30T17:04:56;9.30;99.90
12700;DHT22;6414;49.570;6.060;2024-01-30T17:07:42;9.30;99.90
12700;DHT22;6414;49.570;6.060;2024-01-30T17:10:28;9.30;99.90
12700;DHT22;6414;49.570;6.060;2024-01-30T17:13:14;9.30;99.90
12700;DHT22;6414;49.570;6.060;2024-01-30T17:16:00;9.30;99.90
12700;DHT22;6414;49.570;6.060;2024-01-30T17:18:45;9.40;99.90
12700;DHT22;6414;49.570;6.060;2024-01-30T17:21:31;9.30;99.90
12700;DHT22;6414;49.570;6.060;2024-01-30T17:24:19;9.30;99.90
12700;DHT22;6414;49.570;6.060;2024-01-30T17:27:05;9.30;99.90
12700;DHT22;6414;49.570;6.060;2024-01-30T17:29:51;9.30;99.90
12700;DHT22;6414;49.570;6.060;2024-01-30T17:32:36;9.20;99.90
12700;DHT22;6414;49.570;6.060;2024-01-30T17:35:22;9.20;99.90
12700;DHT22;6414;49.570;6.060;2024-01-30T17:38:08;9.20;99.90
12700;DHT22;6414;49.570;6.060;2024-01-30T17:40:54;9.10;99.90
12700;DHT22;6414;49.570;6.060;2024-01-30T17:43:40;9.10;99.90
12700;DHT22;6414;49.570;6.060;2024-01-30T17:46:26;9.10;99.90
12700;DHT22;6414;49.570;6.060;2024-01-30T17:49:11;9.10;99.90
12700;DHT22;6414;49.570;6.060;2024-01-30T17:51:57;9.10;99.90
12700;DHT22;6414;49.570;6.060;2024-01-30T17:54:43;9.10;99.90
12700;DHT22;6414;49.570;6.060;2024-01-30T17:57:29;9.10;99.90
12700;DHT22;6414;49.570;6.060;2024-01-30T18:00:14;9.00;99.90
12700;DHT22;6414;49.570;6.060;2024-01-30T18:03:01;9.00;99.90
12700;DHT22;6414;49.570;6.060;2024-01-30T18:05:48;9.00;99.90
12700;DHT22;6414;49.570;6.060;2024-01-30T18:08:34;8.90;99.90
12700;DHT22;6414;49.570;6.060;2024-01-30T18:11:19;8.90;99.90
12700;DHT22;6414;49.570;6.060;2024-01-30T18:14:06;8.90;99.90
12700;DHT22;6414;49.570;6.060;2024-01-30T18:16:52;8.90;99.90
12700;DHT22;6414;49.570;6.060;2024-01-30T18:19:39;8.90;99.90
12700;DHT22;6414;49.570;6.060;2024-01-30T18:22:26;8.90;99.90
12700;DHT22;6414;49.570;6.060;2024-01-30T18:25:12;8.90;99.90
12700;DHT22;6414;49.570;6.060;2024-01-30T18:27:59;8.90;99.90
12700;DHT22;6414;49.570;6.060;2024-01-30T18:30:45;8.90;99.90
12700;DHT22;6414;49.570;6.060;2024-01-30T18:33:31;8.90;99.90
12700;DHT22;6414;49.570;6.060;2024-01-30T18:36:23;8.80;99.90
12700;DHT22;6414;49.570;6.060;2024-01-30T18:39:06;8.80;99.90
12700;DHT22;6414;49.570;6.060;2024-01-30T18:41:52;8.90;99.90